Time,TemperatureF,DewpointF,PressureIn,WindDirection,WindDirectionDegrees,WindSpeedMPH,WindSpeedGustMPH,Humidity,HourlyPrecipIn,Conditions,Clouds,dailyrainin,SoftwareType,DateUTC
2013-03-14 00:01:00,54.0,52.0,30.11,WNW,300,2.0,-999.0,93,-99.99,,,-99.99,,2013-03-14 07:01:00,
2013-03-14 00:11:00,54.0,52.0,30.11,North,0,0.0,-999.0,93,-99.99,,,-99.99,,2013-03-14 07:11:00,
2013-03-14 00:21:00,52.0,52.0,30.11,West,280,1.0,-999.0,100,-99.99,,,-99.99,,2013-03-14 07:21:00,
2013-03-14 00:31:00,52.0,52.0,30.11,West,260,1.0,-999.0,100,-99.99,,,-99.99,,2013-03-14 07:31:00,
2013-03-14 00:41:00,52.0,52.0,30.11,West,260,1.0,-999.0,100,-99.99,,,-99.99,,2013-03-14 07:41:00,
2013-03-14 00:52:00,52.0,52.0,30.11,North,0,0.0,-999.0,100,-99.99,,,-99.99,,2013-03-14 07:52:00,
2013-03-14 01:01:00,52.0,52.0,30.11,North,0,0.0,-999.0,100,-99.99,,,-99.99,,2013-03-14 08:01:00,
2013-03-14 01:11:00,54.0,52.0,30.10,West,280,2.0,-999.0,93,-99.99,,,-99.99,,2013-03-14 08:11:00,
2013-03-14 01:21:00,52.0,52.0,30.11,West,280,3.0,-999.0,100,-99.99,,,-99.99,,2013-03-14 08:21:00,
2013-03-14 01:31:00,55.0,54.0,30.11,NNW,330,3.0,-999.0,93,-99.99,,,-99.99,,2013-03-14 08:31:00,
2013-03-14 01:41:00,55.0,54.0,30.11,North,350,5.0,-999.0,93,-99.99,,,-99.99,,2013-03-14 08:41:00,
2013-03-14 01:51:00,54.0,54.0,30.11,North,10,1.0,-999.0,100,-99.99,,,-99.99,,2013-03-14 08:51:00,
2013-03-14 02:01:00,54.0,54.0,30.11,North,10,1.0,-999.0,100,-99.99,,,-99.99,,2013-03-14 09:01:00,
2013-03-14 02:11:00,54.0,54.0,30.11,NW,320,2.0,-999.0,100,-99.99,,,-99.99,,2013-03-14 09:11:00,
2013-03-14 02:22:00,54.0,52.0,30.11,North,0,0.0,-999.0,93,-99.99,,,-99.99,,2013-03-14 09:22:00,
2013-03-14 02:31:00,52.0,52.0,30.11,North,0,0.0,-999.0,100,-99.99,,,-99.99,,2013-03-14 09:31:00,
2013-03-14 02:41:00,50.0,50.0,30.11,North,0,0.0,-999.0,100,-99.99,,,-99.99,,2013-03-14 09:41:00,
2013-03-14 02:51:00,48.0,48.0,30.11,NNW,340,1.0,-999.0,100,-99.99,,,-99.99,,2013-03-14 09:51:00,
2013-03-14 03:01:00,48.0,48.0,30.11,NNW,340,1.0,-999.0,100,-99.99,,,-99.99,,2013-03-14 10:01:00,
2013-03-14 03:11:00,48.0,48.0,30.11,West,280,2.0,-999.0,100,-99.99,,,-99.99,,2013-03-14 10:11:00,
2013-03-14 03:21:00,48.0,48.0,30.11,WNW,300,2.0,-999.0,100,-99.99,,,-99.99,,2013-03-14 10:21:00,
2013-03-14 03:31:00,48.0,48.0,30.10,WNW,300,1.0,-999.0,100,-99.99,,,-99.99,,2013-03-14 10:31:00,
2013-03-14 03:41:00,48.0,48.0,30.10,North,0,0.0,-999.0,100,-99.99,,,-99.99,,2013-03-14 10:41:00,
2013-03-14 03:51:00,48.0,48.0,30.10,West,260,1.0,-999.0,100,-99.99,,,-99.99,,2013-03-14 10:51:00,
2013-03-14 04:01:00,48.0,48.0,30.10,West,260,1.0,-999.0,100,-99.99,,,-99.99,,2013-03-14 11:01:00,
2013-03-14 04:11:00,48.0,48.0,30.10,North,0,0.0,-999.0,100,-99.99,,,-99.99,,2013-03-14 11:11:00,
2013-03-14 04:21:00,48.0,48.0,30.10,West,280,2.0,-999.0,100,-99.99,,,-99.99,,2013-03-14 11:21:00,
2013-03-14 04:31:00,48.0,48.0,30.10,West,280,2.0,-999.0,100,-99.99,,,-99.99,,2013-03-14 11:31:00,
2013-03-14 04:41:00,48.0,48.0,30.10,WNW,290,2.0,-999.0,100,-99.99,,,-99.99,,2013-03-14 11:41:00,
2013-03-14 04:52:00,52.0,52.0,30.10,West,270,2.0,-999.0,100,-99.99,,,-99.99,,2013-03-14 11:52:00,
2013-03-14 05:11:00,50.0,50.0,30.10,West,280,2.0,-999.0,100,-99.99,,,-99.99,,2013-03-14 12:11:00,
2013-03-14 05:21:00,48.0,48.0,30.10,West,280,3.0,-999.0,100,-99.99,,,-99.99,,2013-03-14 12:21:00,
2013-03-14 05:32:00,48.0,48.0,30.10,West,260,2.0,-999.0,100,-99.99,,,-99.99,,2013-03-14 12:32:00,
2013-03-14 05:42:00,48.0,48.0,30.10,West,260,3.0,-999.0,100,-99.99,,,-99.99,,2013-03-14 12:42:00,
2013-03-14 05:51:00,48.0,48.0,30.10,North,0,0.0,-999.0,100,-99.99,,,-99.99,,2013-03-14 12:51:00,
2013-03-14 06:01:00,48.0,48.0,30.10,North,0,0.0,-999.0,100,-99.99,,,-99.99,,2013-03-14 13:01:00,
2013-03-14 06:21:00,48.0,48.0,30.11,West,270,2.0,-999.0,100,-99.99,,,-99.99,,2013-03-14 13:21:00,
2013-03-14 06:32:00,48.0,48.0,30.11,West,270,2.0,-999.0,100,-99.99,,,-99.99,,2013-03-14 13:32:00,
2013-03-14 06:41:00,48.0,48.0,30.11,WNW,290,2.0,-999.0,100,-99.99,,,-99.99,,2013-03-14 13:41:00,
2013-03-14 06:52:00,48.0,48.0,30.11,NNW,330,2.0,-999.0,100,-99.99,,,-99.99,,2013-03-14 13:52:00,
2013-03-14 07:02:00,48.0,48.0,30.11,NNW,330,2.0,-999.0,100,-99.99,,,-99.99,,2013-03-14 14:02:00,
2013-03-14 07:11:00,48.0,48.0,30.11,NW,320,2.0,-999.0,100,-99.99,,,-99.99,,2013-03-14 14:11:00,
2013-03-14 07:21:00,48.0,48.0,30.11,WNW,300,3.0,-999.0,100,-99.99,,,-99.99,,2013-03-14 14:21:00,
2013-03-14 07:31:00,48.0,48.0,30.11,WNW,300,2.0,-999.0,100,-99.99,,,-99.99,,2013-03-14 14:31:00,
2013-03-14 07:42:00,48.0,48.0,30.11,WNW,300,2.0,-999.0,100,-99.99,,,-99.99,,2013-03-14 14:42:00,
2013-03-14 07:52:00,50.0,50.0,30.12,NW,310,1.0,-999.0,100,-99.99,,,-99.99,,2013-03-14 14:52:00,
2013-03-14 08:01:00,50.0,50.0,30.12,NW,310,1.0,-999.0,100,-99.99,,,-99.99,,2013-03-14 15:01:00,
2013-03-14 08:11:00,52.0,52.0,30.12,NW,320,5.0,-999.0,100,-99.99,,,-99.99,,2013-03-14 15:11:00,
2013-03-14 08:32:00,52.0,52.0,30.13,North,360,2.0,-999.0,100,-99.99,,,-99.99,,2013-03-14 15:32:00,
2013-03-14 08:42:00,54.0,54.0,30.13,NNW,340,2.0,-999.0,100,-99.99,,,-99.99,,2013-03-14 15:42:00,
2013-03-14 08:52:00,54.0,54.0,30.14,North,350,2.0,-999.0,100,-99.99,,,-99.99,,2013-03-14 15:52:00,
2013-03-14 09:02:00,54.0,54.0,30.14,North,350,2.0,-999.0,100,-99.99,,,-99.99,,2013-03-14 16:02:00,
2013-03-14 09:12:00,55.0,55.0,30.14,NNW,340,2.0,-999.0,100,-99.99,,,-99.99,,2013-03-14 16:12:00,
2013-03-14 09:22:00,57.0,57.0,30.14,NNW,330,5.0,-999.0,100,-99.99,,,-99.99,,2013-03-14 16:22:00,
2013-03-14 09:32:00,59.0,57.0,30.14,NW,320,7.0,-999.0,93,-99.99,,,-99.99,,2013-03-14 16:32:00,
2013-03-14 09:41:00,61.0,57.0,30.15,NW,320,7.0,-999.0,87,-99.99,,,-99.99,,2013-03-14 16:41:00,
2013-03-14 09:51:00,61.0,57.0,30.15,NNW,340,6.0,-999.0,87,-99.99,,,-99.99,,2013-03-14 16:51:00,
2013-03-14 10:01:00,61.0,57.0,30.15,NNW,340,6.0,-999.0,87,-99.99,,,-99.99,,2013-03-14 17:01:00,
2013-03-14 10:11:00,63.0,55.0,30.15,NNW,330,6.0,-999.0,77,-99.99,,,-99.99,,2013-03-14 17:11:00,
2013-03-14 10:22:00,64.0,55.0,30.16,NW,320,6.0,-999.0,72,-99.99,,,-99.99,,2013-03-14 17:22:00,
2013-03-14 10:31:00,66.0,55.0,30.16,NNW,330,5.0,-999.0,68,-99.99,,,-99.99,,2013-03-14 17:31:00,
2013-03-14 10:41:00,66.0,55.0,30.16,NW,320,6.0,-999.0,68,-99.99,,,-99.99,,2013-03-14 17:41:00,
2013-03-14 10:52:00,66.0,55.0,30.16,NNW,330,3.0,-999.0,68,-99.99,,,-99.99,,2013-03-14 17:52:00,
2013-03-14 11:02:00,66.0,55.0,30.16,NNW,330,3.0,-999.0,68,-99.99,,,-99.99,,2013-03-14 18:02:00,
2013-03-14 11:11:00,66.0,55.0,30.16,NNE,20,7.0,-999.0,68,-99.99,,,-99.99,,2013-03-14 18:11:00,
2013-03-14 11:22:00,68.0,55.0,30.16,North,10,6.0,-999.0,64,-99.99,,,-99.99,,2013-03-14 18:22:00,
2013-03-14 11:32:00,68.0,55.0,30.16,North,0,5.0,-999.0,64,-99.99,,,-99.99,,2013-03-14 18:32:00,
2013-03-14 11:41:00,70.0,55.0,30.16,NNW,340,2.0,-999.0,60,-99.99,,,-99.99,,2013-03-14 18:41:00,
2013-03-14 11:51:00,70.0,55.0,30.16,North,350,6.0,-999.0,60,-99.99,,,-99.99,,2013-03-14 18:51:00,
2013-03-14 12:02:00,70.0,55.0,30.16,North,350,6.0,-999.0,60,-99.99,,,-99.99,,2013-03-14 19:02:00,
2013-03-14 12:11:00,72.0,55.0,30.16,WNW,300,2.0,-999.0,56,-99.99,,,-99.99,,2013-03-14 19:11:00,
2013-03-14 12:21:00,72.0,55.0,30.16,NNW,340,1.0,-999.0,56,-99.99,,,-99.99,,2013-03-14 19:21:00,
2013-03-14 12:31:00,72.0,55.0,30.16,NW,320,3.0,-999.0,56,-99.99,,,-99.99,,2013-03-14 19:31:00,
2013-03-14 12:42:00,72.0,55.0,30.16,NNW,330,3.0,-999.0,56,-99.99,,,-99.99,,2013-03-14 19:42:00,
2013-03-14 12:52:00,72.0,55.0,30.16,NNW,340,3.0,-999.0,56,-99.99,,,-99.99,,2013-03-14 19:52:00,
2013-03-14 13:01:00,72.0,55.0,30.16,NNW,340,3.0,-999.0,56,-99.99,,,-99.99,,2013-03-14 20:01:00,
2013-03-14 13:11:00,73.0,55.0,30.16,NNE,30,1.0,-999.0,53,-99.99,,,-99.99,,2013-03-14 20:11:00,
2013-03-14 13:21:00,72.0,55.0,30.15,West,260,2.0,-999.0,56,-99.99,,,-99.99,,2013-03-14 20:21:00,
2013-03-14 13:31:00,73.0,55.0,30.14,NNW,340,3.0,-999.0,53,-99.99,,,-99.99,,2013-03-14 20:31:00,
2013-03-14 13:41:00,73.0,55.0,30.14,ENE,70,2.0,-999.0,53,-99.99,,,-99.99,,2013-03-14 20:41:00,
2013-03-14 13:51:00,73.0,54.0,30.14,East,90,1.0,-999.0,49,-99.99,,,-99.99,,2013-03-14 20:51:00,
2013-03-14 14:02:00,73.0,54.0,30.14,East,90,1.0,-999.0,49,-99.99,,,-99.99,,2013-03-14 21:02:00,
2013-03-14 14:21:00,73.0,55.0,30.13,NNE,20,2.0,-999.0,53,-99.99,,,-99.99,,2013-03-14 21:21:00,
2013-03-14 14:32:00,75.0,55.0,30.13,North,0,0.0,-999.0,50,-99.99,,,-99.99,,2013-03-14 21:32:00,
2013-03-14 14:43:00,73.0,54.0,30.12,East,90,1.0,-999.0,49,-99.99,,,-99.99,,2013-03-14 21:43:00,
2013-03-14 14:52:00,73.0,55.0,30.12,West,260,2.0,-999.0,53,-99.99,,,-99.99,,2013-03-14 21:52:00,
2013-03-14 15:03:00,73.0,55.0,30.12,West,260,2.0,-999.0,53,-99.99,,,-99.99,,2013-03-14 22:03:00,
2013-03-14 15:12:00,75.0,55.0,30.12,North,0,0.0,-999.0,50,-99.99,,,-99.99,,2013-03-14 22:12:00,
2013-03-14 15:23:00,75.0,55.0,30.12,North,0,0.0,-999.0,50,-99.99,,,-99.99,,2013-03-14 22:23:00,
2013-03-14 15:32:00,75.0,55.0,30.12,West,280,2.0,-999.0,50,-99.99,,,-99.99,,2013-03-14 22:32:00,
2013-03-14 15:41:00,75.0,55.0,30.12,WNW,300,2.0,-999.0,50,-99.99,,,-99.99,,2013-03-14 22:41:00,
2013-03-14 15:52:00,75.0,55.0,30.11,NNE,30,1.0,-999.0,50,-99.99,,,-99.99,,2013-03-14 22:52:00,
2013-03-14 16:02:00,75.0,55.0,30.11,NNE,30,1.0,-999.0,50,-99.99,,,-99.99,,2013-03-14 23:02:00,
2013-03-14 16:11:00,75.0,55.0,30.11,North,0,0.0,-999.0,50,-99.99,,,-99.99,,2013-03-14 23:11:00,
2013-03-14 16:21:00,77.0,55.0,30.11,SSE,150,3.0,-999.0,47,-99.99,,,-99.99,,2013-03-14 23:21:00,
2013-03-14 16:32:00,75.0,55.0,30.10,ESE,120,1.0,-999.0,50,-99.99,,,-99.99,,2013-03-14 23:32:00,
2013-03-14 16:42:00,75.0,55.0,30.11,SSE,150,3.0,-999.0,50,-99.99,,,-99.99,,2013-03-14 23:42:00,
2013-03-14 16:52:00,77.0,54.0,30.11,South,180,3.0,-999.0,44,-99.99,,,-99.99,,2013-03-14 23:52:00,
2013-03-14 17:01:00,77.0,54.0,30.11,South,180,3.0,-999.0,44,-99.99,,,-99.99,,2013-03-15 00:01:00,
2013-03-14 17:11:00,75.0,55.0,30.10,SSE,160,7.0,-999.0,50,-99.99,,,-99.99,,2013-03-15 00:11:00,
2013-03-14 17:21:00,75.0,61.0,30.10,SSE,160,7.0,-999.0,60,-99.99,,,-99.99,,2013-03-15 00:21:00,
2013-03-14 17:31:00,73.0,61.0,30.10,SSE,160,6.0,-999.0,64,-99.99,,,-99.99,,2013-03-15 00:31:00,
2013-03-14 17:41:00,73.0,61.0,30.11,SSE,160,7.0,-999.0,64,-99.99,,,-99.99,,2013-03-15 00:41:00,
2013-03-14 17:51:00,73.0,61.0,30.10,South,180,7.0,-999.0,64,-99.99,,,-99.99,,2013-03-15 00:51:00,
2013-03-14 18:01:00,73.0,61.0,30.10,South,180,7.0,-999.0,64,-99.99,,,-99.99,,2013-03-15 01:01:00,
2013-03-14 18:11:00,73.0,61.0,30.10,South,170,7.0,-999.0,64,-99.99,,,-99.99,,2013-03-15 01:11:00,
2013-03-14 18:21:00,72.0,61.0,30.09,SE,130,3.0,-999.0,68,-99.99,,,-99.99,,2013-03-15 01:21:00,
2013-03-14 18:32:00,72.0,61.0,30.08,South,170,5.0,-999.0,68,-99.99,,,-99.99,,2013-03-15 01:32:00,
2013-03-14 18:41:00,72.0,61.0,30.08,South,180,5.0,-999.0,68,-99.99,,,-99.99,,2013-03-15 01:41:00,
2013-03-14 18:52:00,70.0,63.0,30.09,South,180,5.0,-999.0,77,-99.99,,,-99.99,,2013-03-15 01:52:00,
2013-03-14 19:02:00,70.0,63.0,30.09,South,180,5.0,-999.0,77,-99.99,,,-99.99,,2013-03-15 02:02:00,
2013-03-14 19:11:00,70.0,61.0,30.09,SSE,150,5.0,-999.0,73,-99.99,,,-99.99,,2013-03-15 02:11:00,
2013-03-14 19:21:00,70.0,61.0,30.09,South,180,5.0,-999.0,73,-99.99,,,-99.99,,2013-03-15 02:21:00,
2013-03-14 19:32:00,66.0,61.0,30.09,SSW,200,5.0,-999.0,82,-99.99,,,-99.99,,2013-03-15 02:32:00,
2013-03-14 19:41:00,68.0,61.0,30.09,SSW,210,3.0,-999.0,77,-99.99,,,-99.99,,2013-03-15 02:41:00,
2013-03-14 19:51:00,68.0,61.0,30.09,South,180,3.0,-999.0,77,-99.99,,,-99.99,,2013-03-15 02:51:00,
2013-03-14 20:01:00,68.0,61.0,30.09,South,180,3.0,-999.0,77,-99.99,,,-99.99,,2013-03-15 03:01:00,
2013-03-14 20:11:00,66.0,59.0,30.10,SW,230,2.0,-999.0,77,-99.99,,,-99.99,,2013-03-15 03:11:00,
2013-03-14 20:21:00,66.0,55.0,30.10,West,260,3.0,-999.0,68,-99.99,,,-99.99,,2013-03-15 03:21:00,
2013-03-14 20:32:00,64.0,54.0,30.09,SSW,200,3.0,-999.0,67,-99.99,,,-99.99,,2013-03-15 03:32:00,
2013-03-14 20:42:00,64.0,54.0,30.09,SSW,210,2.0,-999.0,67,-99.99,,,-99.99,,2013-03-15 03:42:00,
2013-03-14 20:52:00,64.0,52.0,30.10,WSW,240,3.0,-999.0,63,-99.99,,,-99.99,,2013-03-15 03:52:00,
2013-03-14 21:02:00,64.0,52.0,30.10,WSW,240,3.0,-999.0,63,-99.99,,,-99.99,,2013-03-15 04:02:00,
2013-03-14 21:12:00,63.0,54.0,30.09,SSE,160,2.0,-999.0,72,-99.99,,,-99.99,,2013-03-15 04:12:00,
2013-03-14 21:22:00,61.0,54.0,30.09,South,180,2.0,-999.0,77,-99.99,,,-99.99,,2013-03-15 04:22:00,
2013-03-14 21:32:00,61.0,52.0,30.09,South,170,2.0,-999.0,72,-99.99,,,-99.99,,2013-03-15 04:32:00,
2013-03-14 21:42:00,61.0,52.0,30.09,WSW,240,2.0,-999.0,72,-99.99,,,-99.99,,2013-03-15 04:42:00,
2013-03-14 21:52:00,57.0,52.0,30.09,West,260,7.0,-999.0,82,-99.99,,,-99.99,,2013-03-15 04:52:00,
2013-03-14 22:02:00,57.0,52.0,30.09,West,260,7.0,-999.0,82,-99.99,,,-99.99,,2013-03-15 05:02:00,
2013-03-14 22:11:00,57.0,52.0,30.10,West,270,6.0,-999.0,82,-99.99,,,-99.99,,2013-03-15 05:11:00,
2013-03-14 22:21:00,55.0,52.0,30.11,West,270,8.0,-999.0,87,-99.99,,,-99.99,,2013-03-15 05:21:00,
2013-03-14 22:31:00,55.0,52.0,30.11,West,270,6.0,-999.0,87,-99.99,,,-99.99,,2013-03-15 05:31:00,
2013-03-14 22:41:00,55.0,50.0,30.11,West,270,3.0,-999.0,81,-99.99,,,-99.99,,2013-03-15 05:41:00,
2013-03-14 22:52:00,55.0,50.0,30.10,WNW,290,3.0,-999.0,81,-99.99,,,-99.99,,2013-03-15 05:52:00,
2013-03-14 23:01:00,55.0,50.0,30.10,WNW,290,3.0,-999.0,81,-99.99,,,-99.99,,2013-03-15 06:01:00,
2013-03-14 23:11:00,55.0,48.0,30.11,West,260,1.0,-999.0,76,-99.99,,,-99.99,,2013-03-15 06:11:00,
2013-03-14 23:21:00,54.0,48.0,30.11,NW,320,1.0,-999.0,81,-99.99,,,-99.99,,2013-03-15 06:21:00,
2013-03-14 23:31:00,54.0,48.0,30.11,North,0,0.0,-999.0,81,-99.99,,,-99.99,,2013-03-15 06:31:00,
2013-03-14 23:41:00,54.0,48.0,30.11,North,0,0.0,-999.0,81,-99.99,,,-99.99,,2013-03-15 06:41:00,
2013-03-14 23:52:00,54.0,48.0,30.11,North,0,0.0,-999.0,81,-99.99,,,-99.99,,2013-03-15 06:52:00,